Time;durP1;ratioP1;P1;durP2;ratioP2;P2;SDS_P1;SDS_P2;PMS_P1;PMS_P2;Temp;Humidity;BMP_temperature;BMP_pressure;BME280_temperature;BME280_humidity;BME280_pressure;Samples;Min_cycle;Max_cycle;Signal;HPM_P1;HPM_P2
2022/08/07 00:01:50;;;;;;;;;;;18.00;51.80;;;;;;4866855;29;21243;-70
2022/08/07 00:04:17;;;;;;;;;;;17.90;52.00;;;;;;4878754;29;19924;-70
2022/08/07 00:06:44;;;;;;;;;;;17.80;52.20;;;;;;4873844;29;19924;-70
2022/08/07 00:09:11;;;;;;;;;;;17.80;52.50;;;;;;4868603;29;19928;-71
2022/08/07 00:11:38;;;;;;;;;;;17.70;52.60;;;;;;4870908;29;19942;-70
2022/08/07 00:14:05;;;;;;;;;;;17.70;52.60;;;;;;4875567;29;20005;-70
2022/08/07 00:16:33;;;;;;;;;;;17.70;52.70;;;;;;4878522;29;19931;-69
2022/08/07 00:19:00;;;;;;;;;;;17.60;52.90;;;;;;4875049;29;20272;-70
2022/08/07 00:21:28;;;;;;;;;;;17.50;53.10;;;;;;4869411;29;20026;-71
2022/08/07 00:23:55;;;;;;;;;;;17.50;53.10;;;;;;4867887;29;19924;-70
2022/08/07 00:26:21;;;;;;;;;;;17.40;53.10;;;;;;4875548;29;19959;-71
2022/08/07 00:28:48;;;;;;;;;;;17.40;53.30;;;;;;4870286;29;19935;-71
2022/08/07 00:31:15;;;;;;;;;;;17.30;53.40;;;;;;4868497;29;20326;-69
2022/08/07 00:33:43;;;;;;;;;;;17.30;53.10;;;;;;4862878;29;20298;-69
2022/08/07 00:36:10;;;;;;;;;;;17.30;52.60;;;;;;4868171;29;19930;-69
2022/08/07 00:38:39;;;;;;;;;;;17.30;52.60;;;;;;4864988;29;20018;-71
2022/08/07 00:41:06;;;;;;;;;;;17.30;52.30;;;;;;4873196;29;19955;-70
2022/08/07 00:43:33;;;;;;;;;;;17.30;52.00;;;;;;4869816;29;19939;-70
2022/08/07 00:46:00;;;;;;;;;;;17.30;52.00;;;;;;4873954;29;19930;-70
2022/08/07 00:48:29;;;;;;;;;;;17.30;52.10;;;;;;4871436;29;19924;-71
2022/08/07 00:50:58;;;;;;;;;;;17.30;52.00;;;;;;4874352;29;19930;-71
2022/08/07 00:53:25;;;;;;;;;;;17.30;52.20;;;;;;4883076;29;19974;-71
2022/08/07 00:55:51;;;;;;;;;;;17.20;52.50;;;;;;4877837;29;20022;-72
2022/08/07 00:58:19;;;;;;;;;;;17.20;52.90;;;;;;4876125;29;19939;-70
2022/08/07 01:00:45;;;;;;;;;;;17.10;53.10;;;;;;4863386;29;19923;-70
2022/08/07 01:03:12;;;;;;;;;;;17.10;53.30;;;;;;4869502;29;19932;-71
2022/08/07 01:05:40;;;;;;;;;;;17.00;53.40;;;;;;4867640;29;19932;-71
2022/08/07 01:08:08;;;;;;;;;;;17.00;53.30;;;;;;4876538;29;20193;-70
2022/08/07 01:10:35;;;;;;;;;;;17.00;53.30;;;;;;4866055;29;20041;-71
2022/08/07 01:13:02;;;;;;;;;;;17.10;53.60;;;;;;4871946;29;19924;-70
2022/08/07 01:15:29;;;;;;;;;;;17.10;53.90;;;;;;4872655;29;20447;-71
2022/08/07 01:17:56;;;;;;;;;;;17.10;54.30;;;;;;4873848;29;19924;-70
2022/08/07 01:20:30;;;;;;;;;;;17.10;54.40;;;;;;4881240;29;19967;-69
2022/08/07 01:22:59;;;;;;;;;;;17.10;54.60;;;;;;4865503;29;19988;-71
2022/08/07 01:25:26;;;;;;;;;;;17.00;54.80;;;;;;4887401;29;20018;-71
2022/08/07 01:27:53;;;;;;;;;;;16.90;55.10;;;;;;4873538;29;20417;-69
2022/08/07 01:30:20;;;;;;;;;;;16.90;55.10;;;;;;4872547;29;19930;-70
2022/08/07 01:32:47;;;;;;;;;;;16.90;55.10;;;;;;4871607;29;19924;-70
2022/08/07 01:35:14;;;;;;;;;;;16.90;55.00;;;;;;4863881;29;19968;-70
2022/08/07 01:37:41;;;;;;;;;;;16.80;55.20;;;;;;4869856;29;19932;-70
2022/08/07 01:40:12;;;;;;;;;;;16.70;55.20;;;;;;4872926;29;20425;-71
2022/08/07 01:42:39;;;;;;;;;;;16.70;55.50;;;;;;4869203;29;19928;-70
2022/08/07 01:45:07;;;;;;;;;;;16.60;55.70;;;;;;4871253;29;19955;-70
2022/08/07 01:47:36;;;;;;;;;;;16.60;55.80;;;;;;4877299;29;19935;-70
2022/08/07 01:50:03;;;;;;;;;;;16.60;55.90;;;;;;4869786;29;20010;-70
2022/08/07 01:52:32;;;;;;;;;;;16.60;56.10;;;;;;4876665;29;19924;-71
2022/08/07 01:55:00;;;;;;;;;;;16.60;56.20;;;;;;4872916;29;19931;-71
2022/08/07 01:57:34;;;;;;;;;;;16.50;56.30;;;;;;4871007;29;19935;-71
2022/08/07 02:00:06;;;;;;;;;;;16.50;56.30;;;;;;4869129;29;20314;-70
2022/08/07 02:02:41;;;;;;;;;;;16.50;56.20;;;;;;4870252;29;19936;-71
2022/08/07 02:05:12;;;;;;;;;;;16.40;56.40;;;;;;4879770;29;20344;-72
2022/08/07 02:07:41;;;;;;;;;;;16.40;56.40;;;;;;4878509;29;20018;-71
2022/08/07 02:10:08;;;;;;;;;;;16.40;56.50;;;;;;4865881;29;19932;-72
2022/08/07 02:12:42;;;;;;;;;;;16.40;56.70;;;;;;4885330;29;19927;-71
2022/08/07 02:15:12;;;;;;;;;;;16.30;56.80;;;;;;4872346;29;19924;-73
2022/08/07 02:17:42;;;;;;;;;;;16.30;56.80;;;;;;4861872;29;19928;-71
2022/08/07 02:20:10;;;;;;;;;;;16.30;56.90;;;;;;4872697;29;19935;-70
2022/08/07 02:22:39;;;;;;;;;;;16.20;57.10;;;;;;4869957;29;19938;-72
2022/08/07 02:25:06;;;;;;;;;;;16.10;57.20;;;;;;4886503;29;19930;-69
2022/08/07 02:27:33;;;;;;;;;;;16.10;57.40;;;;;;4878509;29;19923;-70
2022/08/07 02:30:02;;;;;;;;;;;16.00;57.70;;;;;;4867953;29;20382;-72
2022/08/07 02:32:35;;;;;;;;;;;16.00;57.80;;;;;;4890419;29;20493;-72
2022/08/07 02:35:03;;;;;;;;;;;16.00;57.70;;;;;;4874200;29;19927;-70
2022/08/07 02:37:31;;;;;;;;;;;16.00;57.70;;;;;;4874928;29;19928;-70
2022/08/07 02:39:59;;;;;;;;;;;16.00;57.80;;;;;;4876124;29;20057;-70
2022/08/07 02:42:27;;;;;;;;;;;16.10;57.50;;;;;;4871899;29;20024;-72
2022/08/07 02:44:55;;;;;;;;;;;16.20;57.10;;;;;;4868030;29;20264;-71
2022/08/07 02:47:25;;;;;;;;;;;16.10;57.20;;;;;;4874984;29;19928;-70
2022/08/07 02:50:01;;;;;;;;;;;16.10;57.10;;;;;;4872760;29;20032;-71
2022/08/07 02:52:34;;;;;;;;;;;16.00;57.10;;;;;;4890582;29;19923;-69
2022/08/07 02:55:05;;;;;;;;;;;16.00;57.20;;;;;;4867828;29;19987;-69
2022/08/07 02:57:35;;;;;;;;;;;16.00;56.80;;;;;;4874448;29;19956;-70
2022/08/07 03:00:03;;;;;;;;;;;15.90;57.00;;;;;;4865366;29;20458;-67
2022/08/07 03:02:35;;;;;;;;;;;15.80;57.00;;;;;;4873502;29;19939;-70
2022/08/07 03:05:03;;;;;;;;;;;15.80;57.20;;;;;;4867697;29;19931;-71
2022/08/07 03:07:30;;;;;;;;;;;15.70;57.30;;;;;;4877818;29;19928;-70
2022/08/07 03:09:58;;;;;;;;;;;15.70;57.10;;;;;;4876512;29;19928;-70
2022/08/07 03:12:25;;;;;;;;;;;15.80;56.90;;;;;;4864413;29;19928;-71
2022/08/07 03:14:55;;;;;;;;;;;15.70;57.10;;;;;;4874247;29;19930;-71
2022/08/07 03:17:22;;;;;;;;;;;15.70;57.30;;;;;;4873685;29;19944;-70
2022/08/07 03:19:53;;;;;;;;;;;15.60;57.50;;;;;;4891775;29;19924;-70
2022/08/07 03:22:20;;;;;;;;;;;15.60;57.60;;;;;;4873886;29;19924;-72
2022/08/07 03:24:49;;;;;;;;;;;15.60;57.60;;;;;;4888120;29;20299;-71
2022/08/07 03:27:16;;;;;;;;;;;15.60;57.60;;;;;;4874347;29;19927;-70
2022/08/07 03:29:47;;;;;;;;;;;15.60;57.70;;;;;;4876621;29;20302;-71
2022/08/07 03:32:15;;;;;;;;;;;15.60;57.60;;;;;;4877835;29;19924;-71
2022/08/07 03:34:43;;;;;;;;;;;15.60;57.80;;;;;;4875033;29;19931;-71
2022/08/07 03:37:12;;;;;;;;;;;15.50;58.00;;;;;;4872128;29;19924;-70
2022/08/07 03:39:40;;;;;;;;;;;15.40;58.20;;;;;;4880957;29;19930;-70
2022/08/07 03:42:07;;;;;;;;;;;15.40;58.50;;;;;;4875861;29;19924;-71
2022/08/07 03:44:36;;;;;;;;;;;15.30;58.60;;;;;;4878477;29;19923;-70
2022/08/07 03:47:05;;;;;;;;;;;15.30;58.60;;;;;;4873709;29;20302;-71
2022/08/07 03:49:31;;;;;;;;;;;15.40;58.60;;;;;;4873262;29;19967;-69
2022/08/07 03:51:58;;;;;;;;;;;15.30;58.90;;;;;;4874561;29;20350;-71
2022/08/07 03:54:27;;;;;;;;;;;15.20;58.90;;;;;;4867269;29;20010;-72
2022/08/07 03:56:54;;;;;;;;;;;15.20;59.00;;;;;;4874457;29;20358;-71
2022/08/07 03:59:21;;;;;;;;;;;15.20;59.10;;;;;;4870110;29;20007;-71
2022/08/07 04:01:53;;;;;;;;;;;15.20;59.30;;;;;;4874104;29;19942;-72
2022/08/07 04:04:22;;;;;;;;;;;15.10;59.50;;;;;;4870361;29;20421;-72
2022/08/07 04:06:57;;;;;;;;;;;15.20;59.50;;;;;;4871489;29;20402;-72
2022/08/07 04:09:24;;;;;;;;;;;15.10;59.60;;;;;;4874874;29;19939;-70
2022/08/07 04:11:57;;;;;;;;;;;15.10;59.70;;;;;;4877517;29;20013;-71
2022/08/07 04:14:26;;;;;;;;;;;15.10;59.90;;;;;;4874612;29;19923;-70
2022/08/07 04:16:53;;;;;;;;;;;15.10;60.10;;;;;;4868026;29;19928;-70
2022/08/07 04:19:19;;;;;;;;;;;15.10;60.20;;;;;;4876732;29;20342;-71
2022/08/07 04:21:51;;;;;;;;;;;15.10;60.20;;;;;;4871964;29;19924;-70
2022/08/07 04:24:17;;;;;;;;;;;15.10;60.20;;;;;;4874276;29;20058;-70
2022/08/07 04:26:44;;;;;;;;;;;15.10;60.20;;;;;;4874679;29;19927;-70
2022/08/07 04:29:13;;;;;;;;;;;15.10;60.20;;;;;;4869646;29;20331;-68
2022/08/07 04:31:40;;;;;;;;;;;15.10;60.30;;;;;;4866426;29;19932;-69
2022/08/07 04:34:08;;;;;;;;;;;15.00;60.40;;;;;;4870778;29;19954;-68
2022/08/07 04:36:36;;;;;;;;;;;15.00;60.30;;;;;;4872980;29;19924;-70
2022/08/07 04:39:04;;;;;;;;;;;15.00;60.30;;;;;;4862656;29;19974;-71
2022/08/07 04:41:31;;;;;;;;;;;15.00;60.40;;;;;;4869552;29;20371;-71
2022/08/07 04:44:00;;;;;;;;;;;14.90;60.70;;;;;;4875454;29;20435;-71
2022/08/07 04:46:36;;;;;;;;;;;15.00;60.60;;;;;;4869597;29;20030;-70
2022/08/07 04:49:10;;;;;;;;;;;14.90;60.60;;;;;;4875256;29;20014;-71
2022/08/07 04:51:43;;;;;;;;;;;14.80;60.60;;;;;;4887540;29;20252;-72
2022/08/07 04:54:16;;;;;;;;;;;14.80;60.70;;;;;;4870539;29;20075;-71
2022/08/07 04:56:45;;;;;;;;;;;14.90;60.60;;;;;;4871699;29;20465;-69
2022/08/07 04:59:14;;;;;;;;;;;14.90;60.70;;;;;;4873136;29;19924;-69
2022/08/07 05:01:46;;;;;;;;;;;15.00;60.60;;;;;;4871175;29;19923;-71
2022/08/07 05:04:16;;;;;;;;;;;14.90;60.80;;;;;;4876359;29;19984;-71
2022/08/07 05:06:49;;;;;;;;;;;14.90;61.00;;;;;;4876373;29;20143;-70
2022/08/07 05:09:22;;;;;;;;;;;14.90;61.00;;;;;;4876662;29;20019;-69
2022/08/07 05:11:50;;;;;;;;;;;15.00;61.10;;;;;;4863560;29;19924;-68
2022/08/07 05:14:19;;;;;;;;;;;14.90;61.10;;;;;;4879565;29;19928;-71
2022/08/07 05:16:49;;;;;;;;;;;15.00;61.10;;;;;;4865257;29;19944;-69
2022/08/07 05:19:17;;;;;;;;;;;15.00;61.00;;;;;;4868220;29;19930;-71
2022/08/07 05:21:45;;;;;;;;;;;15.00;61.10;;;;;;4872580;29;19967;-69
2022/08/07 05:24:12;;;;;;;;;;;15.00;60.90;;;;;;4871720;29;19979;-71
2022/08/07 05:26:40;;;;;;;;;;;15.10;60.90;;;;;;4874116;29;19924;-71
2022/08/07 05:29:09;;;;;;;;;;;15.10;60.80;;;;;;4864709;29;19935;-71
2022/08/07 05:31:38;;;;;;;;;;;15.10;60.70;;;;;;4871682;29;19923;-71
2022/08/07 05:34:11;;;;;;;;;;;15.10;60.70;;;;;;4872636;29;20028;-72
2022/08/07 05:36:41;;;;;;;;;;;15.20;60.60;;;;;;4884794;29;19927;-70
2022/08/07 05:39:17;;;;;;;;;;;15.20;60.50;;;;;;4868269;29;19927;-70
2022/08/07 05:41:46;;;;;;;;;;;15.20;60.50;;;;;;4874035;29;19928;-71
2022/08/07 05:44:13;;;;;;;;;;;15.30;60.50;;;;;;4871087;29;19939;-70
2022/08/07 05:46:45;;;;;;;;;;;15.50;60.00;;;;;;4870010;29;19976;-72
2022/08/07 05:49:14;;;;;;;;;;;15.50;59.80;;;;;;4871282;29;19942;-70
2022/08/07 05:51:45;;;;;;;;;;;15.40;60.00;;;;;;4867408;29;20006;-72
2022/08/07 05:54:12;;;;;;;;;;;15.60;59.80;;;;;;4868344;29;19939;-70
2022/08/07 05:56:40;;;;;;;;;;;15.60;59.70;;;;;;4873561;29;19930;-71
2022/08/07 05:59:09;;;;;;;;;;;15.60;59.80;;;;;;4860759;29;20401;-72
2022/08/07 06:01:38;;;;;;;;;;;15.60;59.70;;;;;;4861315;29;19931;-69
2022/08/07 06:04:07;;;;;;;;;;;15.70;59.60;;;;;;4871294;29;20406;-71
2022/08/07 06:06:39;;;;;;;;;;;15.70;59.60;;;;;;4871340;29;19923;-71
2022/08/07 06:09:08;;;;;;;;;;;15.70;59.60;;;;;;4865157;29;19924;-69
2022/08/07 06:11:39;;;;;;;;;;;15.70;59.50;;;;;;4871352;29;19924;-70
2022/08/07 06:14:06;;;;;;;;;;;15.80;59.20;;;;;;4869724;29;20383;-69
2022/08/07 06:16:34;;;;;;;;;;;15.90;59.10;;;;;;4865850;29;20382;-71
2022/08/07 06:19:03;;;;;;;;;;;16.00;59.10;;;;;;4869910;29;19988;-71
2022/08/07 06:21:31;;;;;;;;;;;16.00;59.10;;;;;;4864530;29;20110;-68
2022/08/07 06:23:59;;;;;;;;;;;16.00;59.10;;;;;;4871402;29;19924;-71
2022/08/07 06:26:26;;;;;;;;;;;16.10;59.00;;;;;;4873764;29;19923;-71
2022/08/07 06:28:54;;;;;;;;;;;16.10;58.80;;;;;;4872034;29;19935;-70
2022/08/07 06:31:22;;;;;;;;;;;16.20;58.70;;;;;;4868217;29;19939;-70
2022/08/07 06:33:49;;;;;;;;;;;16.30;58.50;;;;;;4868619;29;19930;-69
2022/08/07 06:36:16;;;;;;;;;;;16.40;58.30;;;;;;4871255;29;19923;-71
2022/08/07 06:38:50;;;;;;;;;;;16.50;58.30;;;;;;4871657;29;19956;-70
2022/08/07 06:41:20;;;;;;;;;;;16.60;57.80;;;;;;4874460;29;19935;-70
2022/08/07 06:43:48;;;;;;;;;;;16.70;57.50;;;;;;4873966;29;20413;-71
2022/08/07 06:46:19;;;;;;;;;;;16.90;57.30;;;;;;4868165;29;19935;-70
2022/08/07 06:48:46;;;;;;;;;;;17.10;57.10;;;;;;4869104;29;19928;-71
2022/08/07 06:51:19;;;;;;;;;;;17.20;56.60;;;;;;4870376;29;19924;-71
2022/08/07 06:53:48;;;;;;;;;;;17.30;56.70;;;;;;4874113;29;19924;-71
2022/08/07 06:56:38;;;;;;;;;;;17.50;56.70;;;;;;4870875;29;19924;-71
2022/08/07 06:59:06;;;;;;;;;;;17.60;56.10;;;;;;4872989;29;19931;-69
2022/08/07 07:01:33;;;;;;;;;;;17.70;56.00;;;;;;4870180;29;19932;-70
2022/08/07 07:04:00;;;;;;;;;;;17.90;55.90;;;;;;4866866;29;19924;-70
2022/08/07 07:06:28;;;;;;;;;;;18.00;55.50;;;;;;4872630;29;19972;-71
2022/08/07 07:08:54;;;;;;;;;;;18.20;55.30;;;;;;4873935;29;19951;-71
2022/08/07 07:11:21;;;;;;;;;;;18.30;55.20;;;;;;4870292;29;19924;-70
2022/08/07 07:13:51;;;;;;;;;;;18.50;54.80;;;;;;4878609;29;20022;-71
2022/08/07 07:16:21;;;;;;;;;;;18.60;53.90;;;;;;4872613;29;19932;-70
2022/08/07 07:18:49;;;;;;;;;;;18.80;54.00;;;;;;4877380;29;20382;-70
2022/08/07 07:21:18;;;;;;;;;;;18.90;53.50;;;;;;4874235;29;19931;-69
2022/08/07 07:23:45;;;;;;;;;;;19.10;52.90;;;;;;4869677;29;19928;-71
2022/08/07 07:26:15;;;;;;;;;;;19.10;53.10;;;;;;4859094;29;19923;-69
2022/08/07 07:28:45;;;;;;;;;;;19.40;52.10;;;;;;4873656;29;19927;-69
2022/08/07 07:31:13;;;;;;;;;;;19.60;52.00;;;;;;4876516;29;19930;-70
2022/08/07 07:33:43;;;;;;;;;;;19.70;51.40;;;;;;4876135;29;19963;-70
2022/08/07 07:36:10;;;;;;;;;;;19.90;50.90;;;;;;4873373;29;20487;-71
2022/08/07 07:38:37;;;;;;;;;;;20.10;51.00;;;;;;4873910;29;20152;-69
2022/08/07 07:41:05;;;;;;;;;;;20.20;50.30;;;;;;4876860;29;19924;-69
2022/08/07 07:43:34;;;;;;;;;;;20.40;49.80;;;;;;4875944;29;20025;-70
2022/08/07 07:46:01;;;;;;;;;;;20.50;49.20;;;;;;4871075;29;19923;-71
2022/08/07 07:48:29;;;;;;;;;;;20.60;48.70;;;;;;4872129;29;20081;-69
2022/08/07 07:50:58;;;;;;;;;;;20.80;48.30;;;;;;4874679;29;20018;-70
2022/08/07 07:53:25;;;;;;;;;;;20.90;48.00;;;;;;4870539;29;19924;-71
2022/08/07 07:55:53;;;;;;;;;;;21.00;47.50;;;;;;4871220;29;20401;-70
2022/08/07 07:58:21;;;;;;;;;;;21.10;47.70;;;;;;4874320;29;19924;-70
2022/08/07 08:00:49;;;;;;;;;;;21.30;47.30;;;;;;4875149;29;19923;-68
2022/08/07 08:03:16;;;;;;;;;;;21.50;46.70;;;;;;4872274;29;20382;-69
2022/08/07 08:05:43;;;;;;;;;;;21.60;46.40;;;;;;4873351;29;19924;-70
2022/08/07 08:08:12;;;;;;;;;;;21.60;46.50;;;;;;4867849;29;20408;-71
2022/08/07 08:10:39;;;;;;;;;;;21.70;46.50;;;;;;4864308;29;19935;-71
2022/08/07 08:13:07;;;;;;;;;;;21.80;46.40;;;;;;4874423;29;20638;-69
2022/08/07 08:15:36;;;;;;;;;;;22.00;45.50;;;;;;4883134;29;19924;-71
2022/08/07 08:18:03;;;;;;;;;;;22.10;45.50;;;;;;4871264;29;20369;-69
2022/08/07 08:20:32;;;;;;;;;;;22.20;45.70;;;;;;4874912;29;19932;-70
2022/08/07 08:28:31;;;;;;;;;;;22.50;44.50;;;;;;4874306;29;19931;-71
2022/08/07 08:30:59;;;;;;;;;;;22.60;44.10;;;;;;4874236;29;19924;-72
2022/08/07 08:33:28;;;;;;;;;;;22.80;44.00;;;;;;4875089;29;19932;-73
2022/08/07 08:35:57;;;;;;;;;;;22.90;43.60;;;;;;4871114;29;19931;-71
2022/08/07 08:38:26;;;;;;;;;;;23.00;43.50;;;;;;4870251;29;20022;-71
2022/08/07 08:40:56;;;;;;;;;;;23.10;43.90;;;;;;4870146;29;19928;-70
2022/08/07 08:43:27;;;;;;;;;;;23.10;43.60;;;;;;4875409;29;19992;-72
2022/08/07 08:45:55;;;;;;;;;;;23.30;43.10;;;;;;4872130;29;20021;-71
2022/08/07 08:48:24;;;;;;;;;;;23.40;43.30;;;;;;4875349;29;19924;-70
2022/08/07 08:50:55;;;;;;;;;;;23.50;42.70;;;;;;4875888;29;19923;-71
2022/08/07 08:53:25;;;;;;;;;;;23.60;42.20;;;;;;4875694;29;19967;-70
2022/08/07 08:55:54;;;;;;;;;;;23.70;42.60;;;;;;4868553;29;20326;-71
2022/08/07 08:58:27;;;;;;;;;;;23.90;41.80;;;;;;4873713;29;19930;-72
2022/08/07 09:00:58;;;;;;;;;;;24.00;41.20;;;;;;4872500;29;19928;-70
2022/08/07 09:03:27;;;;;;;;;;;24.10;41.30;;;;;;4868709;29;19924;-71
2022/08/07 09:05:56;;;;;;;;;;;24.20;40.80;;;;;;4866287;29;19931;-71
2022/08/07 09:08:29;;;;;;;;;;;24.30;41.00;;;;;;4876670;29;19927;-71
2022/08/07 09:11:10;;;;;;;;;;;24.40;40.50;;;;;;4868233;29;20370;-70
2022/08/07 09:13:41;;;;;;;;;;;24.50;40.20;;;;;;4872959;29;20306;-72
2022/08/07 09:16:11;;;;;;;;;;;24.60;40.60;;;;;;4869751;29;20393;-72
2022/08/07 09:18:52;;;;;;;;;;;24.70;39.40;;;;;;4870766;29;20153;-71
2022/08/07 09:21:24;;;;;;;;;;;24.80;39.90;;;;;;4872372;29;19931;-71
2022/08/07 09:23:55;;;;;;;;;;;24.90;39.60;;;;;;4875272;29;19934;-70
2022/08/07 09:26:24;;;;;;;;;;;25.10;38.70;;;;;;4873593;29;19924;-71
2022/08/07 09:28:54;;;;;;;;;;;25.10;38.10;;;;;;4871229;29;19924;-71
2022/08/07 09:31:27;;;;;;;;;;;25.20;38.10;;;;;;4872287;29;19998;-71
2022/08/07 09:34:02;;;;;;;;;;;25.30;37.80;;;;;;4870703;29;20018;-69
2022/08/07 09:36:31;;;;;;;;;;;25.40;37.60;;;;;;4866687;29;19923;-71
2022/08/07 09:39:02;;;;;;;;;;;25.50;36.40;;;;;;4867591;29;20367;-70
2022/08/07 09:41:32;;;;;;;;;;;25.60;36.30;;;;;;4866388;29;19930;-70
2022/08/07 09:44:06;;;;;;;;;;;25.70;36.10;;;;;;4868287;29;20338;-70
2022/08/07 09:46:41;;;;;;;;;;;25.70;35.40;;;;;;4870425;29;19924;-71
2022/08/07 09:49:18;;;;;;;;;;;25.80;35.30;;;;;;4869708;29;19923;-71
2022/08/07 09:51:51;;;;;;;;;;;25.80;35.50;;;;;;4872353;29;20325;-70
2022/08/07 09:54:20;;;;;;;;;;;25.90;34.60;;;;;;4867999;29;19938;-69
2022/08/07 09:57:09;;;;;;;;;;;26.00;34.40;;;;;;4870652;29;19928;-71
2022/08/07 09:59:52;;;;;;;;;;;26.00;35.00;;;;;;4874346;29;20023;-69
2022/08/07 10:02:29;;;;;;;;;;;26.20;34.30;;;;;;4864644;29;19931;-71
2022/08/07 10:05:04;;;;;;;;;;;26.20;34.70;;;;;;4874243;29;19942;-71
2022/08/07 10:07:40;;;;;;;;;;;26.30;34.30;;;;;;4864145;29;19951;-71
2022/08/07 10:10:14;;;;;;;;;;;26.40;34.00;;;;;;4872263;29;20054;-72
2022/08/07 10:12:48;;;;;;;;;;;26.50;34.30;;;;;;4875048;29;19935;-72
2022/08/07 10:15:33;;;;;;;;;;;26.50;34.30;;;;;;4873132;29;19924;-71
2022/08/07 10:18:08;;;;;;;;;;;26.60;34.60;;;;;;4876893;29;19932;-70
2022/08/07 10:20:39;;;;;;;;;;;26.80;34.10;;;;;;4865111;29;19939;-70
2022/08/07 10:23:19;;;;;;;;;;;26.90;34.10;;;;;;4863979;29;19938;-71
2022/08/07 10:25:53;;;;;;;;;;;26.90;34.00;;;;;;4874672;29;19924;-70
2022/08/07 10:28:28;;;;;;;;;;;27.00;33.70;;;;;;4878148;29;19932;-71
2022/08/07 10:31:07;;;;;;;;;;;27.00;34.00;;;;;;4876846;29;19923;-71
2022/08/07 10:33:43;;;;;;;;;;;27.10;33.20;;;;;;4877583;29;19924;-70
2022/08/07 10:36:24;;;;;;;;;;;27.20;33.20;;;;;;4872285;29;19924;-71
2022/08/07 10:38:52;;;;;;;;;;;27.20;33.60;;;;;;4868608;29;19961;-71
2022/08/07 10:41:21;;;;;;;;;;;27.30;33.30;;;;;;4869092;29;19924;-72
2022/08/07 10:43:52;;;;;;;;;;;27.30;33.10;;;;;;4885142;29;19930;-71
2022/08/07 10:46:24;;;;;;;;;;;27.40;33.10;;;;;;4876022;29;19947;-71
2022/08/07 10:48:57;;;;;;;;;;;27.40;33.20;;;;;;4878375;29;19982;-71
2022/08/07 10:51:36;;;;;;;;;;;27.50;33.10;;;;;;4874331;29;19932;-71
2022/08/07 10:54:08;;;;;;;;;;;27.50;33.10;;;;;;4878461;29;19924;-70
2022/08/07 10:56:40;;;;;;;;;;;27.60;33.40;;;;;;4877291;29;20101;-71
2022/08/07 10:59:09;;;;;;;;;;;27.60;33.10;;;;;;4876195;29;20026;-71
2022/08/07 11:01:45;;;;;;;;;;;27.70;32.90;;;;;;4872332;29;19928;-72
2022/08/07 11:04:15;;;;;;;;;;;27.80;32.80;;;;;;4875128;29;20392;-71
2022/08/07 11:06:47;;;;;;;;;;;27.90;32.90;;;;;;4874999;29;19934;-71
2022/08/07 11:09:18;;;;;;;;;;;27.90;32.70;;;;;;4873758;29;19923;-71
2022/08/07 11:11:47;;;;;;;;;;;28.00;32.30;;;;;;4873795;29;19924;-69
2022/08/07 11:14:16;;;;;;;;;;;28.00;32.70;;;;;;4874634;29;19934;-71
2022/08/07 11:16:47;;;;;;;;;;;28.00;32.60;;;;;;4872562;29;20297;-71
2022/08/07 11:19:16;;;;;;;;;;;28.10;32.90;;;;;;4876461;29;19935;-71
2022/08/07 11:21:46;;;;;;;;;;;28.10;32.70;;;;;;4867176;29;19931;-72
2022/08/07 11:24:18;;;;;;;;;;;28.10;32.60;;;;;;4870360;29;19962;-71
2022/08/07 11:26:48;;;;;;;;;;;28.10;32.70;;;;;;4872293;29;20030;-70
2022/08/07 11:29:18;;;;;;;;;;;28.10;32.70;;;;;;4877714;29;20042;-71
2022/08/07 11:31:51;;;;;;;;;;;28.20;32.80;;;;;;4877458;29;19923;-72
2022/08/07 11:34:20;;;;;;;;;;;28.20;32.90;;;;;;4871987;29;19928;-71
2022/08/07 11:36:56;;;;;;;;;;;28.20;33.00;;;;;;4873488;29;19924;-70
2022/08/07 11:39:32;;;;;;;;;;;28.30;32.60;;;;;;4878191;29;20327;-71
2022/08/07 11:42:02;;;;;;;;;;;28.30;32.40;;;;;;4866602;29;19932;-72
2022/08/07 11:44:35;;;;;;;;;;;28.40;32.40;;;;;;4873243;29;19930;-72
2022/08/07 11:47:12;;;;;;;;;;;28.40;31.90;;;;;;4878044;29;19926;-71
2022/08/07 11:49:58;;;;;;;;;;;28.40;32.10;;;;;;4873078;29;19934;-74
2022/08/07 11:52:31;;;;;;;;;;;28.50;32.00;;;;;;4865463;29;19955;-70
2022/08/07 11:55:01;;;;;;;;;;;28.40;31.50;;;;;;4869088;29;19923;-70
2022/08/07 11:57:31;;;;;;;;;;;28.30;31.60;;;;;;4869345;29;20333;-72
2022/08/07 12:00:04;;;;;;;;;;;28.30;31.50;;;;;;4873036;29;19932;-73
2022/08/07 12:02:48;;;;;;;;;;;28.40;32.00;;;;;;4870047;29;19947;-73
2022/08/07 12:05:19;;;;;;;;;;;28.40;31.90;;;;;;4880392;29;20271;-70
2022/08/07 12:07:51;;;;;;;;;;;28.30;31.60;;;;;;4871929;29;20379;-70
2022/08/07 12:10:22;;;;;;;;;;;28.30;32.40;;;;;;4874314;29;20382;-68
2022/08/07 12:12:53;;;;;;;;;;;28.40;32.00;;;;;;4876537;29;19924;-71
2022/08/07 12:15:22;;;;;;;;;;;28.40;32.50;;;;;;4866960;29;19923;-70
2022/08/07 12:17:54;;;;;;;;;;;28.40;31.90;;;;;;4868477;29;19932;-70
2022/08/07 12:20:23;;;;;;;;;;;28.50;32.20;;;;;;4869897;29;19923;-70
2022/08/07 12:22:56;;;;;;;;;;;28.50;31.80;;;;;;4876867;29;20264;-71
2022/08/07 12:28:28;;;;;;;;;;;28.50;31.60;;;;;;4856696;29;20008;-70
2022/08/07 12:30:56;;;;;;;;;;;28.60;31.30;;;;;;4856331;29;19924;-73
2022/08/07 12:33:28;;;;;;;;;;;28.50;31.20;;;;;;4867629;29;19923;-71
2022/08/07 12:35:55;;;;;;;;;;;28.50;31.20;;;;;;4868957;29;19924;-71
2022/08/07 12:38:23;;;;;;;;;;;28.50;30.70;;;;;;4876896;29;19959;-71
2022/08/07 12:40:51;;;;;;;;;;;28.50;30.70;;;;;;4876410;29;19930;-70
2022/08/07 12:43:19;;;;;;;;;;;28.50;30.80;;;;;;4873069;29;20213;-70
2022/08/07 12:45:51;;;;;;;;;;;28.50;31.80;;;;;;4866348;29;20149;-72
2022/08/07 12:48:24;;;;;;;;;;;28.50;31.90;;;;;;4865726;29;19931;-71
2022/08/07 12:50:53;;;;;;;;;;;28.40;31.50;;;;;;4877775;29;19924;-70
2022/08/07 12:53:23;;;;;;;;;;;28.40;31.40;;;;;;4864263;29;19924;-72
2022/08/07 12:55:55;;;;;;;;;;;28.40;32.30;;;;;;4873974;29;19935;-71
2022/08/07 12:58:22;;;;;;;;;;;28.40;31.50;;;;;;4871088;29;19923;-68
2022/08/07 13:00:51;;;;;;;;;;;28.40;31.30;;;;;;4875785;29;19924;-69
2022/08/07 13:03:30;;;;;;;;;;;28.40;30.90;;;;;;4875402;29;20464;-70
2022/08/07 13:06:06;;;;;;;;;;;28.40;31.00;;;;;;4861434;29;19939;-71
2022/08/07 13:08:38;;;;;;;;;;;28.40;30.60;;;;;;4867450;29;20022;-70
2022/08/07 13:11:13;;;;;;;;;;;28.50;30.00;;;;;;4866288;29;24536;-71
2022/08/07 13:13:45;;;;;;;;;;;28.50;29.60;;;;;;4869445;29;19927;-71
2022/08/07 13:16:15;;;;;;;;;;;28.50;30.10;;;;;;4872229;29;19924;-71
2022/08/07 13:18:45;;;;;;;;;;;28.40;30.30;;;;;;4870785;29;20078;-70
2022/08/07 13:21:17;;;;;;;;;;;28.30;30.80;;;;;;4871404;29;20018;-69
2022/08/07 13:23:48;;;;;;;;;;;28.30;30.70;;;;;;4873893;29;19931;-70
2022/08/07 13:26:19;;;;;;;;;;;28.20;30.70;;;;;;4873696;29;20446;-71
2022/08/07 13:28:49;;;;;;;;;;;28.10;31.70;;;;;;4875756;29;19923;-70
2022/08/07 13:31:18;;;;;;;;;;;28.00;31.50;;;;;;4877283;29;19998;-70
2022/08/07 13:33:48;;;;;;;;;;;28.00;32.00;;;;;;4869189;29;19924;-72
2022/08/07 13:36:20;;;;;;;;;;;28.00;31.60;;;;;;4871140;29;20378;-67
2022/08/07 13:38:49;;;;;;;;;;;27.90;31.10;;;;;;4876319;29;19924;-71
2022/08/07 13:41:21;;;;;;;;;;;28.00;31.10;;;;;;4872847;29;19930;-71
2022/08/07 13:43:49;;;;;;;;;;;27.90;31.00;;;;;;4867252;29;19923;-69
2022/08/07 13:46:16;;;;;;;;;;;27.90;30.90;;;;;;4872190;29;19934;-72
2022/08/07 13:48:46;;;;;;;;;;;27.90;32.00;;;;;;4873248;29;20310;-70
2022/08/07 13:51:14;;;;;;;;;;;27.90;32.00;;;;;;4868412;29;19959;-71
2022/08/07 13:53:46;;;;;;;;;;;27.80;30.90;;;;;;4874147;29;19924;-70
2022/08/07 13:56:17;;;;;;;;;;;27.70;30.70;;;;;;4875778;29;19967;-71
2022/08/07 13:59:04;;;;;;;;;;;27.70;31.20;;;;;;4873086;29;20335;-71
2022/08/07 14:01:32;;;;;;;;;;;27.70;31.80;;;;;;4864068;29;20024;-70
2022/08/07 14:04:01;;;;;;;;;;;27.70;31.00;;;;;;4869910;29;19967;-70
2022/08/07 14:06:31;;;;;;;;;;;27.70;30.60;;;;;;4871599;29;19924;-70
2022/08/07 14:09:00;;;;;;;;;;;27.70;30.60;;;;;;4877833;29;20378;-71
2022/08/07 14:11:28;;;;;;;;;;;27.70;31.00;;;;;;4873080;29;19923;-71
2022/08/07 14:13:57;;;;;;;;;;;27.60;31.00;;;;;;4873286;29;19924;-71
2022/08/07 14:16:26;;;;;;;;;;;27.60;31.60;;;;;;4865622;29;20015;-72
2022/08/07 14:18:53;;;;;;;;;;;27.60;31.00;;;;;;4874744;29;19923;-71
2022/08/07 14:21:26;;;;;;;;;;;27.60;30.50;;;;;;4867571;29;19938;-69
2022/08/07 14:23:57;;;;;;;;;;;27.50;30.50;;;;;;4868839;29;19924;-71
2022/08/07 14:26:28;;;;;;;;;;;27.60;30.80;;;;;;4869266;29;20588;-70
2022/08/07 14:28:56;;;;;;;;;;;27.50;31.10;;;;;;4868202;29;19927;-70
2022/08/07 14:31:24;;;;;;;;;;;27.60;31.30;;;;;;4874941;29;19935;-71
2022/08/07 14:33:51;;;;;;;;;;;27.50;31.10;;;;;;4863384;29;19924;-69
2022/08/07 14:36:19;;;;;;;;;;;27.50;31.40;;;;;;4873313;29;19923;-71
2022/08/07 14:38:48;;;;;;;;;;;27.50;30.80;;;;;;4872339;29;19923;-71
2022/08/07 14:41:17;;;;;;;;;;;27.40;30.90;;;;;;4866721;29;19930;-71